sensor_id;sensor_type;location;lat;lon;timestamp;temperature;humidity
36924;DHT22;22841;50.252;18.688;2023-05-10T00:00:44;9.00;99.90
36924;DHT22;22841;50.252;18.688;2023-05-10T00:03:10;9.00;99.90
36924;DHT22;22841;50.252;18.688;2023-05-10T00:05:36;9.00;1.00
36924;DHT22;22841;50.252;18.688;2023-05-10T00:08:02;9.00;1.00
36924;DHT22;22841;50.252;18.688;2023-05-10T00:10:28;8.90;1.00
36924;DHT22;22841;50.252;18.688;2023-05-10T00:12:54;8.80;1.00
36924;DHT22;22841;50.252;18.688;2023-05-10T00:15:20;8.80;1.00
36924;DHT22;22841;50.252;18.688;2023-05-10T00:17:46;8.80;1.00
36924;DHT22;22841;50.252;18.688;2023-05-10T00:20:13;8.80;1.00
36924;DHT22;22841;50.252;18.688;2023-05-10T00:22:39;8.70;1.00
36924;DHT22;22841;50.252;18.688;2023-05-10T00:25:05;8.70;1.00
36924;DHT22;22841;50.252;18.688;2023-05-10T00:27:32;8.60;1.00
36924;DHT22;22841;50.252;18.688;2023-05-10T00:29:58;8.60;1.00
36924;DHT22;22841;50.252;18.688;2023-05-10T00:32:24;8.50;1.00
36924;DHT22;22841;50.252;18.688;2023-05-10T00:34:50;8.50;1.00
36924;DHT22;22841;50.252;18.688;2023-05-10T00:37:16;8.50;1.00
36924;DHT22;22841;50.252;18.688;2023-05-10T00:39:42;8.50;1.00
36924;DHT22;22841;50.252;18.688;2023-05-10T00:42:08;8.40;1.00
36924;DHT22;22841;50.252;18.688;2023-05-10T00:44:34;8.50;1.00
36924;DHT22;22841;50.252;18.688;2023-05-10T00:47:00;8.40;1.00
36924;DHT22;22841;50.252;18.688;2023-05-10T00:49:26;8.30;1.00
36924;DHT22;22841;50.252;18.688;2023-05-10T00:51:53;8.30;1.00
36924;DHT22;22841;50.252;18.688;2023-05-10T00:54:19;8.20;1.00
36924;DHT22;22841;50.252;18.688;2023-05-10T00:56:45;8.20;1.00
36924;DHT22;22841;50.252;18.688;2023-05-10T00:59:18;8.10;1.00
36924;DHT22;22841;50.252;18.688;2023-05-10T01:01:45;8.10;15.30
36924;DHT22;22841;50.252;18.688;2023-05-10T01:04:15;8.10;16.70
36924;DHT22;22841;50.252;18.688;2023-05-10T01:06:41;8.00;20.20
36924;DHT22;22841;50.252;18.688;2023-05-10T01:09:07;8.00;15.10
36924;DHT22;22841;50.252;18.688;2023-05-10T01:11:35;8.00;41.80
36924;DHT22;22841;50.252;18.688;2023-05-10T01:14:02;8.00;24.30
36924;DHT22;22841;50.252;18.688;2023-05-10T01:16:32;7.90;63.30
36924;DHT22;22841;50.252;18.688;2023-05-10T01:19:00;7.80;66.70
36924;DHT22;22841;50.252;18.688;2023-05-10T01:22:05;7.80;56.60
36924;DHT22;22841;50.252;18.688;2023-05-10T01:27:52;7.80;63.60
36924;DHT22;22841;50.252;18.688;2023-05-10T01:33:06;7.70;98.70
36924;DHT22;22841;50.252;18.688;2023-05-10T01:35:43;7.70;90.00
36924;DHT22;22841;50.252;18.688;2023-05-10T01:38:29;7.60;99.90
36924;DHT22;22841;50.252;18.688;2023-05-10T01:46:38;7.60;99.90
36924;DHT22;22841;50.252;18.688;2023-05-10T01:49:10;7.50;99.90
36924;DHT22;22841;50.252;18.688;2023-05-10T01:51:50;7.40;99.90
36924;DHT22;22841;50.252;18.688;2023-05-10T01:54:19;7.50;99.90
36924;DHT22;22841;50.252;18.688;2023-05-10T01:56:50;7.40;99.90
36924;DHT22;22841;50.252;18.688;2023-05-10T01:59:19;7.40;99.90
36924;DHT22;22841;50.252;18.688;2023-05-10T02:01:47;7.40;99.90
36924;DHT22;22841;50.252;18.688;2023-05-10T02:04:16;7.30;99.90
36924;DHT22;22841;50.252;18.688;2023-05-10T02:06:43;7.30;99.90
36924;DHT22;22841;50.252;18.688;2023-05-10T02:09:11;7.40;99.90
36924;DHT22;22841;50.252;18.688;2023-05-10T02:11:39;7.30;99.90
36924;DHT22;22841;50.252;18.688;2023-05-10T02:14:09;7.30;99.90
36924;DHT22;22841;50.252;18.688;2023-05-10T02:16:38;7.30;99.90
36924;DHT22;22841;50.252;18.688;2023-05-10T02:19:05;7.30;99.90
36924;DHT22;22841;50.252;18.688;2023-05-10T02:21:32;7.20;99.90
36924;DHT22;22841;50.252;18.688;2023-05-10T02:24:00;7.20;99.90
36924;DHT22;22841;50.252;18.688;2023-05-10T02:26:28;7.10;99.90
36924;DHT22;22841;50.252;18.688;2023-05-10T02:28:56;7.10;99.90
36924;DHT22;22841;50.252;18.688;2023-05-10T02:31:23;7.20;99.90
36924;DHT22;22841;50.252;18.688;2023-05-10T02:33:50;7.20;99.90
36924;DHT22;22841;50.252;18.688;2023-05-10T02:36:16;7.10;99.90
36924;DHT22;22841;50.252;18.688;2023-05-10T02:38:44;7.10;99.90
36924;DHT22;22841;50.252;18.688;2023-05-10T02:41:11;7.00;99.90
36924;DHT22;22841;50.252;18.688;2023-05-10T02:43:40;7.00;99.90
36924;DHT22;22841;50.252;18.688;2023-05-10T02:46:06;7.00;99.90
36924;DHT22;22841;50.252;18.688;2023-05-10T02:48:32;7.00;99.90
36924;DHT22;22841;50.252;18.688;2023-05-10T02:51:03;7.00;99.90
36924;DHT22;22841;50.252;18.688;2023-05-10T02:53:36;7.00;99.90
36924;DHT22;22841;50.252;18.688;2023-05-10T02:56:13;7.00;99.90
36924;DHT22;22841;50.252;18.688;2023-05-10T02:58:40;6.90;99.90
36924;DHT22;22841;50.252;18.688;2023-05-10T03:01:06;7.00;99.90
36924;DHT22;22841;50.252;18.688;2023-05-10T03:03:33;6.90;99.90
36924;DHT22;22841;50.252;18.688;2023-05-10T03:05:59;7.00;99.90
36924;DHT22;22841;50.252;18.688;2023-05-10T03:08:26;6.90;99.90
36924;DHT22;22841;50.252;18.688;2023-05-10T03:14:02;6.90;99.90
36924;DHT22;22841;50.252;18.688;2023-05-10T03:16:44;6.90;99.90
36924;DHT22;22841;50.252;18.688;2023-05-10T03:19:29;6.90;99.90
36924;DHT22;22841;50.252;18.688;2023-05-10T03:21:59;6.90;99.90
36924;DHT22;22841;50.252;18.688;2023-05-10T03:24:30;6.90;99.90
36924;DHT22;22841;50.252;18.688;2023-05-10T03:26:59;6.90;99.90
36924;DHT22;22841;50.252;18.688;2023-05-10T03:29:28;6.80;99.90
36924;DHT22;22841;50.252;18.688;2023-05-10T03:31:55;6.90;99.90
36924;DHT22;22841;50.252;18.688;2023-05-10T03:34:24;6.90;99.90
36924;DHT22;22841;50.252;18.688;2023-05-10T03:36:50;6.90;99.90
36924;DHT22;22841;50.252;18.688;2023-05-10T03:39:16;6.80;99.90
36924;DHT22;22841;50.252;18.688;2023-05-10T03:41:43;6.90;99.90
36924;DHT22;22841;50.252;18.688;2023-05-10T03:44:09;6.90;99.90
36924;DHT22;22841;50.252;18.688;2023-05-10T03:46:35;6.80;99.90
36924;DHT22;22841;50.252;18.688;2023-05-10T03:49:01;6.80;99.90
36924;DHT22;22841;50.252;18.688;2023-05-10T03:51:27;6.80;99.90
36924;DHT22;22841;50.252;18.688;2023-05-10T03:53:54;6.90;99.90
36924;DHT22;22841;50.252;18.688;2023-05-10T03:56:21;6.80;99.90
36924;DHT22;22841;50.252;18.688;2023-05-10T03:58:47;6.80;99.90
36924;DHT22;22841;50.252;18.688;2023-05-10T04:01:14;6.80;99.90
36924;DHT22;22841;50.252;18.688;2023-05-10T04:03:40;6.80;99.90
36924;DHT22;22841;50.252;18.688;2023-05-10T04:06:06;6.90;99.90
36924;DHT22;22841;50.252;18.688;2023-05-10T04:08:34;6.90;99.90
36924;DHT22;22841;50.252;18.688;2023-05-10T04:11:09;6.90;99.90
36924;DHT22;22841;50.252;18.688;2023-05-10T04:13:35;7.00;99.90
36924;DHT22;22841;50.252;18.688;2023-05-10T04:16:02;7.00;99.90
36924;DHT22;22841;50.252;18.688;2023-05-10T04:18:28;7.10;99.90
36924;DHT22;22841;50.252;18.688;2023-05-10T04:20:54;7.20;99.90
36924;DHT22;22841;50.252;18.688;2023-05-10T04:23:20;7.20;99.90
36924;DHT22;22841;50.252;18.688;2023-05-10T04:25:46;7.20;99.90
36924;DHT22;22841;50.252;18.688;2023-05-10T04:28:12;7.30;99.90
36924;DHT22;22841;50.252;18.688;2023-05-10T04:30:38;7.30;99.90
36924;DHT22;22841;50.252;18.688;2023-05-10T04:33:04;7.40;99.90
36924;DHT22;22841;50.252;18.688;2023-05-10T04:35:30;7.50;99.90
36924;DHT22;22841;50.252;18.688;2023-05-10T04:37:57;7.60;99.90
36924;DHT22;22841;50.252;18.688;2023-05-10T04:40:23;7.70;99.90
36924;DHT22;22841;50.252;18.688;2023-05-10T04:42:49;7.80;99.90
36924;DHT22;22841;50.252;18.688;2023-05-10T04:45:15;7.80;99.90
36924;DHT22;22841;50.252;18.688;2023-05-10T04:47:41;8.00;99.90
36924;DHT22;22841;50.252;18.688;2023-05-10T04:50:07;8.00;99.90
36924;DHT22;22841;50.252;18.688;2023-05-10T04:52:34;8.00;99.90
36924;DHT22;22841;50.252;18.688;2023-05-10T04:55:00;8.10;99.90
36924;DHT22;22841;50.252;18.688;2023-05-10T04:57:26;8.20;99.90
36924;DHT22;22841;50.252;18.688;2023-05-10T04:59:52;8.30;99.90
36924;DHT22;22841;50.252;18.688;2023-05-10T05:02:18;8.40;99.90
36924;DHT22;22841;50.252;18.688;2023-05-10T05:04:44;8.40;99.90
36924;DHT22;22841;50.252;18.688;2023-05-10T05:07:10;8.60;97.30
36924;DHT22;22841;50.252;18.688;2023-05-10T05:09:36;8.60;99.90
36924;DHT22;22841;50.252;18.688;2023-05-10T05:12:02;8.70;93.30
36924;DHT22;22841;50.252;18.688;2023-05-10T05:14:29;8.80;71.80
36924;DHT22;22841;50.252;18.688;2023-05-10T05:16:55;8.90;41.60
36924;DHT22;22841;50.252;18.688;2023-05-10T05:19:21;9.00;80.60
36924;DHT22;22841;50.252;18.688;2023-05-10T05:21:48;9.10;1.00
36924;DHT22;22841;50.252;18.688;2023-05-10T05:24:15;9.20;1.00
36924;DHT22;22841;50.252;18.688;2023-05-10T05:26:41;9.20;90.90
36924;DHT22;22841;50.252;18.688;2023-05-10T05:29:07;9.30;52.50
36924;DHT22;22841;50.252;18.688;2023-05-10T05:31:33;9.40;39.90
36924;DHT22;22841;50.252;18.688;2023-05-10T05:33:59;9.50;1.00
36924;DHT22;22841;50.252;18.688;2023-05-10T05:36:25;9.60;1.00
36924;DHT22;22841;50.252;18.688;2023-05-10T05:38:51;9.70;99.90
36924;DHT22;22841;50.252;18.688;2023-05-10T05:41:17;9.80;99.90
36924;DHT22;22841;50.252;18.688;2023-05-10T05:43:43;9.90;99.90
36924;DHT22;22841;50.252;18.688;2023-05-10T05:46:09;9.90;99.90
36924;DHT22;22841;50.252;18.688;2023-05-10T05:48:36;10.10;99.90
36924;DHT22;22841;50.252;18.688;2023-05-10T05:51:02;10.10;99.90
36924;DHT22;22841;50.252;18.688;2023-05-10T05:53:28;10.20;99.90
36924;DHT22;22841;50.252;18.688;2023-05-10T05:55:56;10.30;99.90
36924;DHT22;22841;50.252;18.688;2023-05-10T05:58:24;10.40;99.90
36924;DHT22;22841;50.252;18.688;2023-05-10T06:00:51;10.50;99.90
36924;DHT22;22841;50.252;18.688;2023-05-10T06:03:20;10.60;99.90
36924;DHT22;22841;50.252;18.688;2023-05-10T06:05:46;10.70;99.90
36924;DHT22;22841;50.252;18.688;2023-05-10T06:08:12;10.80;1.00
36924;DHT22;22841;50.252;18.688;2023-05-10T06:10:38;10.90;1.00
36924;DHT22;22841;50.252;18.688;2023-05-10T06:13:04;11.00;1.00
36924;DHT22;22841;50.252;18.688;2023-05-10T06:15:31;11.10;99.90
36924;DHT22;22841;50.252;18.688;2023-05-10T06:17:58;11.20;1.00
36924;DHT22;22841;50.252;18.688;2023-05-10T06:20:24;11.30;1.00
36924;DHT22;22841;50.252;18.688;2023-05-10T06:22:50;11.40;99.90
36924;DHT22;22841;50.252;18.688;2023-05-10T06:25:16;11.50;1.00
36924;DHT22;22841;50.252;18.688;2023-05-10T06:27:44;11.70;99.90
36924;DHT22;22841;50.252;18.688;2023-05-10T06:30:10;11.70;99.90
36924;DHT22;22841;50.252;18.688;2023-05-10T06:32:39;11.80;99.90
36924;DHT22;22841;50.252;18.688;2023-05-10T06:35:05;11.90;99.90
36924;DHT22;22841;50.252;18.688;2023-05-10T06:37:31;12.00;54.80
36924;DHT22;22841;50.252;18.688;2023-05-10T06:39:57;12.20;1.00
36924;DHT22;22841;50.252;18.688;2023-05-10T06:42:24;12.30;99.90
36924;DHT22;22841;50.252;18.688;2023-05-10T06:44:51;12.40;99.90
36924;DHT22;22841;50.252;18.688;2023-05-10T06:47:17;12.50;1.00
36924;DHT22;22841;50.252;18.688;2023-05-10T06:49:43;12.60;97.10
36924;DHT22;22841;50.252;18.688;2023-05-10T06:52:10;12.80;94.00
36924;DHT22;22841;50.252;18.688;2023-05-10T06:54:36;12.80;1.00
36924;DHT22;22841;50.252;18.688;2023-05-10T06:57:02;13.00;99.90
36924;DHT22;22841;50.252;18.688;2023-05-10T06:59:29;13.20;1.00
36924;DHT22;22841;50.252;18.688;2023-05-10T07:01:55;13.20;19.00
36924;DHT22;22841;50.252;18.688;2023-05-10T07:04:21;13.40;99.90
36924;DHT22;22841;50.252;18.688;2023-05-10T07:06:47;13.50;99.90
36924;DHT22;22841;50.252;18.688;2023-05-10T07:09:13;13.60;99.90
36924;DHT22;22841;50.252;18.688;2023-05-10T07:11:39;13.80;95.30
36924;DHT22;22841;50.252;18.688;2023-05-10T07:14:05;13.90;99.90
36924;DHT22;22841;50.252;18.688;2023-05-10T07:16:31;14.00;99.90
36924;DHT22;22841;50.252;18.688;2023-05-10T07:18:57;14.10;99.90
36924;DHT22;22841;50.252;18.688;2023-05-10T07:21:23;14.10;99.90
36924;DHT22;22841;50.252;18.688;2023-05-10T07:23:50;14.30;1.00
36924;DHT22;22841;50.252;18.688;2023-05-10T07:26:16;14.50;1.00
36924;DHT22;22841;50.252;18.688;2023-05-10T07:28:42;14.60;1.00
36924;DHT22;22841;50.252;18.688;2023-05-10T07:31:08;14.70;99.90
36924;DHT22;22841;50.252;18.688;2023-05-10T07:33:34;14.80;99.90
36924;DHT22;22841;50.252;18.688;2023-05-10T07:36:00;14.90;1.00
36924;DHT22;22841;50.252;18.688;2023-05-10T07:38:26;15.00;13.50
36924;DHT22;22841;50.252;18.688;2023-05-10T07:40:52;15.00;99.90
36924;DHT22;22841;50.252;18.688;2023-05-10T07:43:18;15.10;1.00
36924;DHT22;22841;50.252;18.688;2023-05-10T07:45:45;15.10;1.00
36924;DHT22;22841;50.252;18.688;2023-05-10T07:48:11;15.30;99.90
36924;DHT22;22841;50.252;18.688;2023-05-10T07:50:37;15.30;1.00
36924;DHT22;22841;50.252;18.688;2023-05-10T07:53:03;15.40;99.90
36924;DHT22;22841;50.252;18.688;2023-05-10T07:55:29;15.40;99.90
36924;DHT22;22841;50.252;18.688;2023-05-10T07:57:55;15.60;1.00
36924;DHT22;22841;50.252;18.688;2023-05-10T08:00:21;15.70;99.90
36924;DHT22;22841;50.252;18.688;2023-05-10T08:02:48;15.60;99.90
36924;DHT22;22841;50.252;18.688;2023-05-10T08:05:14;15.70;99.90
36924;DHT22;22841;50.252;18.688;2023-05-10T08:07:40;15.70;99.90
36924;DHT22;22841;50.252;18.688;2023-05-10T08:10:07;15.70;99.90
36924;DHT22;22841;50.252;18.688;2023-05-10T08:12:33;15.90;99.90
36924;DHT22;22841;50.252;18.688;2023-05-10T08:14:59;16.00;99.90
36924;DHT22;22841;50.252;18.688;2023-05-10T08:17:25;16.00;99.90
36924;DHT22;22841;50.252;18.688;2023-05-10T08:19:51;16.00;99.90
36924;DHT22;22841;50.252;18.688;2023-05-10T08:22:17;16.20;99.90
36924;DHT22;22841;50.252;18.688;2023-05-10T08:24:43;16.30;99.90
36924;DHT22;22841;50.252;18.688;2023-05-10T08:27:10;16.30;99.90
36924;DHT22;22841;50.252;18.688;2023-05-10T08:29:37;16.30;99.90
36924;DHT22;22841;50.252;18.688;2023-05-10T08:32:03;16.50;99.90
36924;DHT22;22841;50.252;18.688;2023-05-10T08:34:29;16.60;99.90
36924;DHT22;22841;50.252;18.688;2023-05-10T08:36:57;16.70;99.90
36924;DHT22;22841;50.252;18.688;2023-05-10T08:39:23;16.70;99.90
36924;DHT22;22841;50.252;18.688;2023-05-10T08:41:51;16.70;99.90
36924;DHT22;22841;50.252;18.688;2023-05-10T08:44:18;16.70;86.40
36924;DHT22;22841;50.252;18.688;2023-05-10T08:46:46;16.80;99.90
36924;DHT22;22841;50.252;18.688;2023-05-10T08:49:17;16.90;99.90
36924;DHT22;22841;50.252;18.688;2023-05-10T08:51:49;17.00;99.90
36924;DHT22;22841;50.252;18.688;2023-05-10T08:54:15;17.00;99.90
36924;DHT22;22841;50.252;18.688;2023-05-10T08:56:42;17.10;99.90
36924;DHT22;22841;50.252;18.688;2023-05-10T08:59:08;17.10;89.90
36924;DHT22;22841;50.252;18.688;2023-05-10T09:01:35;17.20;44.60
36924;DHT22;22841;50.252;18.688;2023-05-10T09:04:03;17.20;99.90
36924;DHT22;22841;50.252;18.688;2023-05-10T09:06:30;17.30;99.90
36924;DHT22;22841;50.252;18.688;2023-05-10T09:08:56;17.40;99.90
36924;DHT22;22841;50.252;18.688;2023-05-10T09:11:22;17.40;61.60
36924;DHT22;22841;50.252;18.688;2023-05-10T09:13:50;17.50;55.60
36924;DHT22;22841;50.252;18.688;2023-05-10T09:16:18;17.70;75.20
36924;DHT22;22841;50.252;18.688;2023-05-10T09:18:44;17.80;17.90
36924;DHT22;22841;50.252;18.688;2023-05-10T09:21:10;17.50;78.20
36924;DHT22;22841;50.252;18.688;2023-05-10T09:23:36;17.40;18.70
36924;DHT22;22841;50.252;18.688;2023-05-10T09:26:07;17.50;13.80
36924;DHT22;22841;50.252;18.688;2023-05-10T09:28:53;17.70;17.40
36924;DHT22;22841;50.252;18.688;2023-05-10T09:31:19;17.80;25.60
36924;DHT22;22841;50.252;18.688;2023-05-10T09:33:49;18.00;1.00
36924;DHT22;22841;50.252;18.688;2023-05-10T09:36:15;17.90;29.50
36924;DHT22;22841;50.252;18.688;2023-05-10T09:38:48;18.00;1.00
36924;DHT22;22841;50.252;18.688;2023-05-10T09:41:20;17.90;1.00
36924;DHT22;22841;50.252;18.688;2023-05-10T09:43:46;18.00;1.00
36924;DHT22;22841;50.252;18.688;2023-05-10T09:46:12;17.90;1.00
36924;DHT22;22841;50.252;18.688;2023-05-10T09:48:50;17.80;1.00
36924;DHT22;22841;50.252;18.688;2023-05-10T09:51:21;17.80;1.00
36924;DHT22;22841;50.252;18.688;2023-05-10T09:53:47;18.00;32.60
36924;DHT22;22841;50.252;18.688;2023-05-10T09:56:13;18.20;77.50
36924;DHT22;22841;50.252;18.688;2023-05-10T09:58:41;18.30;1.00
36924;DHT22;22841;50.252;18.688;2023-05-10T10:01:11;18.20;1.00
36924;DHT22;22841;50.252;18.688;2023-05-10T10:03:42;18.40;1.00
36924;DHT22;22841;50.252;18.688;2023-05-10T10:06:08;18.40;1.00
36924;DHT22;22841;50.252;18.688;2023-05-10T10:08:35;18.40;1.00
36924;DHT22;22841;50.252;18.688;2023-05-10T10:11:01;18.40;1.00
36924;DHT22;22841;50.252;18.688;2023-05-10T10:13:28;18.40;1.00
36924;DHT22;22841;50.252;18.688;2023-05-10T10:15:54;18.40;1.00
36924;DHT22;22841;50.252;18.688;2023-05-10T10:18:20;18.10;1.00
36924;DHT22;22841;50.252;18.688;2023-05-10T10:20:54;17.80;1.00
36924;DHT22;22841;50.252;18.688;2023-05-10T10:23:21;17.60;1.00
36924;DHT22;22841;50.252;18.688;2023-05-10T10:25:48;17.50;12.80
36924;DHT22;22841;50.252;18.688;2023-05-10T10:31:32;17.80;1.00
36924;DHT22;22841;50.252;18.688;2023-05-10T10:34:10;17.90;1.00
36924;DHT22;22841;50.252;18.688;2023-05-10T10:36:46;18.10;18.90
36924;DHT22;22841;50.252;18.688;2023-05-10T10:39:13;18.10;1.00
36924;DHT22;22841;50.252;18.688;2023-05-10T10:41:54;18.10;1.00
36924;DHT22;22841;50.252;18.688;2023-05-10T10:47:10;17.70;99.90
36924;DHT22;22841;50.252;18.688;2023-05-10T10:50:05;17.60;12.60
36924;DHT22;22841;50.252;18.688;2023-05-10T10:52:36;17.60;40.10
36924;DHT22;22841;50.252;18.688;2023-05-10T10:55:12;17.90;6.70
36924;DHT22;22841;50.252;18.688;2023-05-10T11:00:30;18.00;1.00
36924;DHT22;22841;50.252;18.688;2023-05-10T11:03:05;17.80;1.00
36924;DHT22;22841;50.252;18.688;2023-05-10T11:10:51;17.40;1.50
36924;DHT22;22841;50.252;18.688;2023-05-10T11:16:09;17.60;1.00
36924;DHT22;22841;50.252;18.688;2023-05-10T11:18:36;17.90;1.00
36924;DHT22;22841;50.252;18.688;2023-05-10T11:21:03;18.00;1.00
36924;DHT22;22841;50.252;18.688;2023-05-10T11:23:33;18.10;1.00
36924;DHT22;22841;50.252;18.688;2023-05-10T11:26:13;18.00;1.00
36924;DHT22;22841;50.252;18.688;2023-05-10T11:28:48;18.00;1.00
36924;DHT22;22841;50.252;18.688;2023-05-10T11:31:16;18.10;1.00
36924;DHT22;22841;50.252;18.688;2023-05-10T11:33:55;18.30;1.40
36924;DHT22;22841;50.252;18.688;2023-05-10T11:36:26;18.40;1.00
36924;DHT22;22841;50.252;18.688;2023-05-10T11:38:54;18.40;1.00
36924;DHT22;22841;50.252;18.688;2023-05-10T11:41:21;18.40;1.00
36924;DHT22;22841;50.252;18.688;2023-05-10T11:43:49;18.40;1.00
36924;DHT22;22841;50.252;18.688;2023-05-10T11:46:21;18.30;1.00
36924;DHT22;22841;50.252;18.688;2023-05-10T11:48:50;18.20;31.10
36924;DHT22;22841;50.252;18.688;2023-05-10T11:51:23;18.30;3.70
36924;DHT22;22841;50.252;18.688;2023-05-10T11:53:52;18.70;1.00
36924;DHT22;22841;50.252;18.688;2023-05-10T11:56:19;18.90;1.00
36924;DHT22;22841;50.252;18.688;2023-05-10T11:58:55;19.20;1.00
36924;DHT22;22841;50.252;18.688;2023-05-10T12:01:23;19.30;1.00
36924;DHT22;22841;50.252;18.688;2023-05-10T12:03:50;19.30;1.00
36924;DHT22;22841;50.252;18.688;2023-05-10T12:06:18;19.10;1.00
36924;DHT22;22841;50.252;18.688;2023-05-10T12:08:46;18.70;1.00
36924;DHT22;22841;50.252;18.688;2023-05-10T12:11:13;18.60;23.40
36924;DHT22;22841;50.252;18.688;2023-05-10T12:13:44;18.50;12.90
36924;DHT22;22841;50.252;18.688;2023-05-10T12:16:18;18.50;1.00
36924;DHT22;22841;50.252;18.688;2023-05-10T12:18:45;18.70;1.00
36924;DHT22;22841;50.252;18.688;2023-05-10T12:21:12;19.20;1.00
36924;DHT22;22841;50.252;18.688;2023-05-10T12:23:39;19.70;1.00
36924;DHT22;22841;50.252;18.688;2023-05-10T12:26:05;20.30;1.00
36924;DHT22;22841;50.252;18.688;2023-05-10T12:28:32;20.70;1.00
36924;DHT22;22841;50.252;18.688;2023-05-10T12:31:02;20.90;1.00
36924;DHT22;22841;50.252;18.688;2023-05-10T12:33:39;20.90;1.00
36924;DHT22;22841;50.252;18.688;2023-05-10T12:36:12;21.00;1.00
36924;DHT22;22841;50.252;18.688;2023-05-10T12:38:43;20.50;1.00
36924;DHT22;22841;50.252;18.688;2023-05-10T12:41:12;20.00;1.00
36924;DHT22;22841;50.252;18.688;2023-05-10T12:43:39;19.80;1.00
36924;DHT22;22841;50.252;18.688;2023-05-10T12:46:14;19.60;1.00
36924;DHT22;22841;50.252;18.688;2023-05-10T12:48:42;19.60;1.00
36924;DHT22;22841;50.252;18.688;2023-05-10T12:51:09;19.80;1.00
36924;DHT22;22841;50.252;18.688;2023-05-10T12:53:38;19.90;1.00
36924;DHT22;22841;50.252;18.688;2023-05-10T12:56:04;19.70;1.00
36924;DHT22;22841;50.252;18.688;2023-05-10T12:58:31;19.30;1.00
36924;DHT22;22841;50.252;18.688;2023-05-10T13:00:58;19.20;1.00
36924;DHT22;22841;50.252;18.688;2023-05-10T13:03:25;19.00;1.00
36924;DHT22;22841;50.252;18.688;2023-05-10T13:05:51;19.00;1.00
36924;DHT22;22841;50.252;18.688;2023-05-10T13:08:17;18.90;1.00
36924;DHT22;22841;50.252;18.688;2023-05-10T13:10:43;18.90;1.00
36924;DHT22;22841;50.252;18.688;2023-05-10T13:13:09;18.90;1.00
36924;DHT22;22841;50.252;18.688;2023-05-10T13:15:35;18.90;1.00
36924;DHT22;22841;50.252;18.688;2023-05-10T13:18:01;19.10;1.00
36924;DHT22;22841;50.252;18.688;2023-05-10T13:20:28;19.30;1.00
36924;DHT22;22841;50.252;18.688;2023-05-10T13:22:54;19.50;1.00
36924;DHT22;22841;50.252;18.688;2023-05-10T13:25:20;19.50;1.00
36924;DHT22;22841;50.252;18.688;2023-05-10T13:27:46;19.50;1.00
36924;DHT22;22841;50.252;18.688;2023-05-10T13:30:12;19.30;1.00
36924;DHT22;22841;50.252;18.688;2023-05-10T13:32:38;19.10;1.00
36924;DHT22;22841;50.252;18.688;2023-05-10T13:35:06;19.00;1.00
36924;DHT22;22841;50.252;18.688;2023-05-10T13:37:32;18.90;1.00
36924;DHT22;22841;50.252;18.688;2023-05-10T13:40:03;18.80;1.00
36924;DHT22;22841;50.252;18.688;2023-05-10T13:42:30;18.70;1.00
36924;DHT22;22841;50.252;18.688;2023-05-10T13:44:57;18.70;1.00
36924;DHT22;22841;50.252;18.688;2023-05-10T13:47:23;18.80;1.00
36924;DHT22;22841;50.252;18.688;2023-05-10T13:49:49;18.80;1.00
36924;DHT22;22841;50.252;18.688;2023-05-10T13:52:15;19.00;1.00
36924;DHT22;22841;50.252;18.688;2023-05-10T13:54:41;18.90;1.00
36924;DHT22;22841;50.252;18.688;2023-05-10T13:57:08;18.80;1.00
36924;DHT22;22841;50.252;18.688;2023-05-10T13:59:34;18.90;1.00
36924;DHT22;22841;50.252;18.688;2023-05-10T14:02:00;18.80;1.00
36924;DHT22;22841;50.252;18.688;2023-05-10T14:04:29;18.80;1.00
36924;DHT22;22841;50.252;18.688;2023-05-10T14:06:56;18.80;1.00
36924;DHT22;22841;50.252;18.688;2023-05-10T14:09:22;18.80;1.00
36924;DHT22;22841;50.252;18.688;2023-05-10T14:11:48;18.80;1.00
36924;DHT22;22841;50.252;18.688;2023-05-10T14:14:14;18.80;1.00
36924;DHT22;22841;50.252;18.688;2023-05-10T14:16:43;18.80;1.00
36924;DHT22;22841;50.252;18.688;2023-05-10T14:19:09;18.70;1.00
36924;DHT22;22841;50.252;18.688;2023-05-10T14:21:35;18.70;1.00
36924;DHT22;22841;50.252;18.688;2023-05-10T14:24:02;18.70;1.00
36924;DHT22;22841;50.252;18.688;2023-05-10T14:26:28;18.70;1.00
36924;DHT22;22841;50.252;18.688;2023-05-10T14:28:54;18.70;1.00
36924;DHT22;22841;50.252;18.688;2023-05-10T14:31:20;18.70;14.00
36924;DHT22;22841;50.252;18.688;2023-05-10T14:33:47;18.70;16.70
36924;DHT22;22841;50.252;18.688;2023-05-10T14:36:13;18.70;1.00
36924;DHT22;22841;50.252;18.688;2023-05-10T14:38:40;18.60;6.70
36924;DHT22;22841;50.252;18.688;2023-05-10T14:41:06;18.60;6.40
36924;DHT22;22841;50.252;18.688;2023-05-10T14:43:32;18.60;1.00
36924;DHT22;22841;50.252;18.688;2023-05-10T14:45:58;18.50;40.40
36924;DHT22;22841;50.252;18.688;2023-05-10T14:48:24;18.60;1.00
36924;DHT22;22841;50.252;18.688;2023-05-10T14:50:50;18.60;1.00
36924;DHT22;22841;50.252;18.688;2023-05-10T14:53:18;18.70;1.00
36924;DHT22;22841;50.252;18.688;2023-05-10T14:55:44;18.60;1.00
36924;DHT22;22841;50.252;18.688;2023-05-10T14:58:10;18.70;1.00
36924;DHT22;22841;50.252;18.688;2023-05-10T15:00:36;18.70;1.00
36924;DHT22;22841;50.252;18.688;2023-05-10T15:03:03;18.60;1.00
36924;DHT22;22841;50.252;18.688;2023-05-10T15:05:29;18.50;1.00
36924;DHT22;22841;50.252;18.688;2023-05-10T15:07:55;18.40;1.00
36924;DHT22;22841;50.252;18.688;2023-05-10T15:10:21;18.30;1.00
36924;DHT22;22841;50.252;18.688;2023-05-10T15:12:48;18.30;12.60
36924;DHT22;22841;50.252;18.688;2023-05-10T15:15:14;18.30;1.00
36924;DHT22;22841;50.252;18.688;2023-05-10T15:17:40;18.30;1.00
36924;DHT22;22841;50.252;18.688;2023-05-10T15:20:07;18.40;1.00
36924;DHT22;22841;50.252;18.688;2023-05-10T15:22:33;18.40;1.00
36924;DHT22;22841;50.252;18.688;2023-05-10T15:24:59;18.50;1.00
36924;DHT22;22841;50.252;18.688;2023-05-10T15:27:26;18.30;1.00
36924;DHT22;22841;50.252;18.688;2023-05-10T15:29:52;18.20;1.00
36924;DHT22;22841;50.252;18.688;2023-05-10T15:32:19;18.00;1.00
36924;DHT22;22841;50.252;18.688;2023-05-10T15:34:45;17.90;68.00
36924;DHT22;22841;50.252;18.688;2023-05-10T15:37:11;17.80;99.30
36924;DHT22;22841;50.252;18.688;2023-05-10T15:39:37;17.70;99.90
36924;DHT22;22841;50.252;18.688;2023-05-10T15:42:04;17.60;99.90
36924;DHT22;22841;50.252;18.688;2023-05-10T15:44:30;17.50;99.90
36924;DHT22;22841;50.252;18.688;2023-05-10T15:46:56;17.50;99.90
36924;DHT22;22841;50.252;18.688;2023-05-10T15:49:22;17.40;99.90
36924;DHT22;22841;50.252;18.688;2023-05-10T15:51:48;17.40;99.90
36924;DHT22;22841;50.252;18.688;2023-05-10T15:54:14;17.40;99.90
36924;DHT22;22841;50.252;18.688;2023-05-10T15:56:40;17.40;99.90
36924;DHT22;22841;50.252;18.688;2023-05-10T15:59:07;17.40;99.90
36924;DHT22;22841;50.252;18.688;2023-05-10T16:01:35;17.40;99.90